Leesville, California
Current Conditions -  °F | °C
As of 12:53 PM on Sunday 23 Nov 2014 (Local Time) from KMYV Reporting Station
Clear Clear  
Wind Chill: 58°   Ceiling: Unl
Heat Index: 58°   Visibility: 10mi
Dew Point: 41°   Wind: 10mph
Humidity: 53%   Direction: 340°NNW
Pressure: 30.29"   Gusts: NA
Location:  39.1016°N, 122.307°W
Report Text: KMYV 232053Z AUTO 34009KT 10SM CLR 14/05 A3029 RMK AO2 SLP260 T01440050 58021
Loading
Personal Weather Stations






























Interactive Weather Map New forecast layout! Learn more

10-Day Weather Forecast

Advertisements
Track Severe Weather on mobile